Time;durP1;ratioP1;P1;durP2;ratioP2;P2;SDS_P1;SDS_P2;PMS_P1;PMS_P2;Temp;Humidity;BMP_temperature;BMP_pressure;BME280_temperature;BME280_humidity;BME280_pressure;Samples;Min_cycle;Max_cycle;Signal;HPM_P1;HPM_P2
2023/04/21 00:01:58;;;;;;;21.42;6.25;;;7.90;99.90;;;;;;5053693;28;20056;-79
2023/04/21 00:04:24;;;;;;;22.98;8.00;;;7.90;99.90;;;;;;5054347;28;20076;-80
2023/04/21 00:06:52;;;;;;;25.80;8.23;;;7.90;99.90;;;;;;5053448;28;20048;-80
2023/04/21 00:09:19;;;;;;;22.65;6.93;;;7.90;99.90;;;;;;5054440;28;20041;-80
2023/04/21 00:11:46;;;;;;;21.13;6.45;;;7.90;99.90;;;;;;5038466;28;20055;-79
2023/04/21 00:14:13;;;;;;;22.85;8.68;;;7.90;99.90;;;;;;5054350;28;20910;-79
2023/04/21 00:16:39;;;;;;;23.65;7.68;;;7.90;99.90;;;;;;5054030;28;20044;-79
2023/04/21 00:19:07;;;;;;;25.17;7.95;;;7.90;99.90;;;;;;5054158;28;20048;-79
2023/04/21 00:21:34;;;;;;;20.23;7.25;;;7.90;99.90;;;;;;5036725;28;20124;-80
2023/04/21 00:24:00;;;;;;;20.38;7.50;;;7.90;99.90;;;;;;5054872;28;20403;-80
2023/04/21 00:26:27;;;;;;;18.40;7.20;;;7.90;99.90;;;;;;5053124;28;20037;-80
2023/04/21 00:31:40;;;;;;;24.45;8.32;;;7.90;99.90;;;;;;5053906;28;20056;-79
2023/04/21 00:34:07;;;;;;;20.20;7.80;;;7.90;99.90;;;;;;5054102;28;20430;-79
2023/04/21 00:36:34;;;;;;;26.23;7.97;;;7.90;99.90;;;;;;5053715;28;20119;-80
2023/04/21 00:39:02;;;;;;;22.25;6.85;;;7.90;99.90;;;;;;5037206;28;20098;-79
2023/04/21 00:41:29;;;;;;;27.40;9.40;;;7.90;99.90;;;;;;5036404;28;20075;-79
2023/04/21 00:43:56;;;;;;;20.65;8.73;;;7.90;99.90;;;;;;5053687;28;20064;-79
2023/04/21 00:46:23;;;;;;;27.95;8.40;;;8.00;99.90;;;;;;5054858;28;20104;-81
2023/04/21 00:51:35;;;;;;;22.05;8.32;;;7.90;99.90;;;;;;5053648;28;20045;-80
2023/04/21 00:54:02;;;;;;;26.77;8.77;;;7.90;99.90;;;;;;5037053;28;20048;-80
2023/04/21 00:56:29;;;;;;;25.08;7.30;;;7.90;99.90;;;;;;5013371;28;20045;-79
2023/04/21 00:58:56;;;;;;;25.00;9.70;;;7.90;99.90;;;;;;5013813;28;20453;-79
2023/04/21 01:01:23;;;;;;;24.58;9.70;;;7.90;99.90;;;;;;5012902;28;20512;-80
2023/04/21 01:03:50;;;;;;;23.35;8.13;;;7.90;99.90;;;;;;5014962;28;20038;-78
2023/04/21 01:06:16;;;;;;;27.23;9.77;;;7.90;99.90;;;;;;5013890;28;20129;-79
2023/04/21 01:08:44;;;;;;;27.60;8.95;;;7.90;99.90;;;;;;4996642;28;20137;-81
2023/04/21 01:11:14;;;;;;;24.25;9.13;;;8.00;99.90;;;;;;5013826;28;20077;-79
2023/04/21 01:13:41;;;;;;;28.55;9.85;;;7.90;99.90;;;;;;5015086;28;20502;-80
2023/04/21 01:16:07;;;;;;;24.70;8.65;;;7.90;99.90;;;;;;5017843;28;20137;-79
2023/04/21 01:18:36;;;;;;;22.35;8.23;;;8.00;99.90;;;;;;5018556;28;20049;-81
2023/04/21 01:21:03;;;;;;;21.75;8.48;;;7.90;99.90;;;;;;5018067;28;20111;-80
2023/04/21 01:23:29;;;;;;;31.60;8.73;;;7.90;99.90;;;;;;5017726;28;20136;-79
2023/04/21 01:25:56;;;;;;;23.35;7.90;;;7.90;99.90;;;;;;5018644;28;20042;-80
2023/04/21 01:28:24;;;;;;;23.58;8.63;;;7.90;99.90;;;;;;5017786;28;20045;-78
2023/04/21 01:30:50;;;;;;;26.88;9.48;;;7.80;99.90;;;;;;5017219;28;20073;-79
2023/04/21 01:33:20;;;;;;;24.85;8.30;;;7.90;99.90;;;;;;5016558;28;20052;-81
2023/04/21 01:35:47;;;;;;;23.67;8.95;;;7.90;99.90;;;;;;5017083;28;20057;-80
2023/04/21 01:38:20;;;;;;;21.17;7.85;;;8.00;99.90;;;;;;5002238;28;20095;-79
2023/04/21 01:40:47;;;;;;;21.00;8.27;;;8.00;99.90;;;;;;5017158;28;20435;-81
2023/04/21 01:43:13;;;;;;;29.45;9.27;;;8.00;99.90;;;;;;5017240;28;20052;-81
2023/04/21 01:45:40;;;;;;;24.83;9.35;;;8.00;99.90;;;;;;5017383;28;20046;-81
2023/04/21 01:50:52;;;;;;;25.27;9.50;;;8.00;99.90;;;;;;5017180;28;20069;-80
2023/04/21 01:53:19;;;;;;;23.73;9.75;;;8.00;99.90;;;;;;5016355;28;20364;-81
2023/04/21 01:55:46;;;;;;;21.10;9.00;;;7.90;99.90;;;;;;5017401;28;20144;-80
2023/04/21 02:00:58;;;;;;;36.00;10.10;;;7.90;99.90;;;;;;5016962;28;20117;-79
2023/04/21 02:03:25;;;;;;;27.08;9.90;;;7.90;99.90;;;;;;5017840;28;20045;-81
2023/04/21 02:05:52;;;;;;;26.15;8.40;;;7.90;99.90;;;;;;5016969;28;20392;-81
2023/04/21 02:08:19;;;;;;;29.48;9.80;;;7.80;99.90;;;;;;5016183;28;20038;-79
2023/04/21 02:10:45;;;;;;;25.58;10.32;;;7.70;99.90;;;;;;5016643;28;20071;-80
2023/04/21 02:13:12;;;;;;;23.48;9.27;;;7.60;99.90;;;;;;5016905;28;20468;-80
2023/04/21 02:15:39;;;;;;;24.88;9.10;;;7.50;99.90;;;;;;5016734;28;20053;-81
2023/04/21 02:18:07;;;;;;;26.70;10.80;;;7.50;99.90;;;;;;5017176;28;20362;-79
2023/04/21 02:20:34;;;;;;;26.77;10.15;;;7.40;99.90;;;;;;5015758;28;20496;-80
2023/04/21 02:23:00;;;;;;;22.65;8.68;;;7.30;99.90;;;;;;5016687;28;20088;-79
2023/04/21 02:25:28;;;;;;;27.35;9.85;;;7.30;99.90;;;;;;5016493;28;20100;-80
2023/04/21 02:27:56;;;;;;;29.65;10.55;;;7.30;99.90;;;;;;5016740;28;20376;-78
2023/04/21 02:30:25;;;;;;;27.35;9.32;;;7.20;99.90;;;;;;5016638;28;20046;-80
2023/04/21 02:32:52;;;;;;;23.73;8.07;;;7.20;99.90;;;;;;5016348;28;20429;-79
2023/04/21 02:35:19;;;;;;;25.55;9.13;;;7.10;99.90;;;;;;5015489;28;20050;-79
2023/04/21 02:40:31;;;;;;;22.67;8.13;;;7.10;99.90;;;;;;5016272;28;20076;-79
2023/04/21 02:42:58;;;;;;;33.78;9.35;;;7.00;99.90;;;;;;5016239;28;20056;-77
2023/04/21 02:45:25;;;;;;;21.13;8.25;;;7.00;99.90;;;;;;5017038;28;20403;-80
2023/04/21 02:47:52;;;;;;;27.95;10.75;;;6.90;99.90;;;;;;5015139;28;20042;-79
2023/04/21 02:50:19;;;;;;;24.05;9.20;;;6.90;99.90;;;;;;5016158;28;20066;-78
2023/04/21 02:52:46;;;;;;;19.92;8.75;;;6.90;99.90;;;;;;5015861;28;20041;-80
2023/04/21 02:55:13;;;;;;;24.75;8.93;;;6.80;99.90;;;;;;5015170;28;20034;-81
2023/04/21 02:57:41;;;;;;;26.38;9.43;;;6.80;99.90;;;;;;5016161;28;20046;-79
2023/04/21 03:00:10;;;;;;;21.55;8.60;;;6.80;99.90;;;;;;5015415;28;20437;-80
2023/04/21 03:02:37;;;;;;;24.13;8.65;;;6.70;99.90;;;;;;5015627;28;20053;-79
2023/04/21 03:05:05;;;;;;;25.73;9.68;;;6.70;99.90;;;;;;5016548;28;20033;-80
2023/04/21 03:10:18;;;;;;;24.50;9.15;;;6.70;99.90;;;;;;5017130;28;20050;-80
2023/04/21 03:12:45;;;;;;;31.42;8.68;;;6.60;99.90;;;;;;5015541;28;20042;-79
2023/04/21 03:15:13;;;;;;;31.83;9.90;;;6.70;99.90;;;;;;5015001;28;20053;-79
2023/04/21 03:20:10;;;;;;;24.83;8.82;;;6.60;99.90;;;;;;5015876;28;20034;-79
2023/04/21 03:22:37;;;;;;;25.45;8.50;;;6.60;99.90;;;;;;5015342;28;20057;-79
2023/04/21 03:25:03;;;;;;;29.65;8.77;;;6.60;99.90;;;;;;5015533;28;20050;-79
2023/04/21 03:27:32;;;;;;;27.95;9.60;;;6.60;99.90;;;;;;5014479;28;20068;-80
2023/04/21 03:30:02;;;;;;;23.65;7.30;;;6.60;99.90;;;;;;5016161;28;20038;-80
2023/04/21 03:32:29;;;;;;;22.73;8.60;;;6.60;99.90;;;;;;4998949;28;20053;-80
2023/04/21 03:34:56;;;;;;;23.95;9.48;;;6.50;99.90;;;;;;5014652;28;20536;-79
2023/04/21 03:40:10;;;;;;;27.48;8.80;;;6.50;99.90;;;;;;5011918;28;20128;-80
2023/04/21 03:42:36;;;;;;;26.77;9.50;;;6.50;99.90;;;;;;4999283;28;20096;-79
2023/04/21 03:45:03;;;;;;;29.92;9.98;;;6.50;99.90;;;;;;5015394;28;20049;-80
2023/04/21 03:47:33;;;;;;;18.20;6.50;;;6.40;99.90;;;;;;5015105;28;20449;-80
2023/04/21 03:50:00;;;;;;;19.10;7.25;;;6.40;99.90;;;;;;5014991;28;20108;-80
2023/04/21 03:52:27;;;;;;;27.15;7.82;;;6.40;99.90;;;;;;5014949;28;20045;-79
2023/04/21 03:54:53;;;;;;;33.67;11.52;;;6.40;99.90;;;;;;5014995;28;20478;-79
2023/04/21 03:57:20;;;;;;;27.55;10.13;;;6.40;99.90;;;;;;5015734;28;20037;-80
2023/04/21 03:59:47;;;;;;;30.52;9.60;;;6.40;99.90;;;;;;5014927;28;20042;-79
2023/04/21 04:02:13;;;;;;;26.73;8.98;;;6.40;99.90;;;;;;5014683;28;20048;-79
2023/04/21 04:04:40;;;;;;;31.20;9.70;;;6.40;99.90;;;;;;5015615;28;20100;-80
2023/04/21 04:09:54;;;;;;;32.88;10.25;;;6.40;99.90;;;;;;5015877;28;20088;-78
2023/04/21 04:12:21;;;;;;;29.13;10.10;;;6.40;99.90;;;;;;5014701;28;20057;-80
2023/04/21 04:14:48;;;;;;;26.73;9.43;;;6.40;99.90;;;;;;5014615;28;20172;-79
2023/04/21 04:17:14;;;;;;;29.60;10.70;;;6.40;99.90;;;;;;4998107;28;20081;-79
2023/04/21 04:19:41;;;;;;;28.13;8.15;;;6.40;99.90;;;;;;5015433;28;20112;-80
2023/04/21 04:22:08;;;;;;;26.58;10.13;;;6.40;99.90;;;;;;5014334;28;20453;-80
2023/04/21 04:24:35;;;;;;;25.25;8.63;;;6.40;99.90;;;;;;5014560;28;20050;-80
2023/04/21 04:27:02;;;;;;;29.25;9.90;;;6.40;99.90;;;;;;5014676;28;20057;-79
2023/04/21 04:29:29;;;;;;;23.45;9.50;;;6.40;99.90;;;;;;5030858;28;20050;-81
2023/04/21 04:31:56;;;;;;;30.55;9.70;;;6.40;99.90;;;;;;5014632;28;20428;-80
2023/04/21 04:34:23;;;;;;;26.23;8.75;;;6.40;99.90;;;;;;5014446;28;20140;-79
2023/04/21 04:36:50;;;;;;;23.73;9.80;;;6.40;99.90;;;;;;5015291;28;20057;-80
2023/04/21 04:39:16;;;;;;;28.17;9.50;;;6.40;99.90;;;;;;5015152;28;20064;-80
2023/04/21 04:41:45;;;;;;;22.55;8.13;;;6.40;99.90;;;;;;5013267;28;20046;-81
2023/04/21 04:44:14;;;;;;;31.40;9.73;;;6.40;99.90;;;;;;5030505;28;20056;-78
2023/04/21 04:46:41;;;;;;;27.98;10.70;;;6.50;99.90;;;;;;5013135;28;20042;-81
2023/04/21 04:51:55;;;;;;;23.48;8.50;;;6.60;99.90;;;;;;5014050;28;20045;-79
2023/04/21 04:54:23;;;;;;;35.88;10.68;;;6.70;99.90;;;;;;5014289;28;20049;-80
2023/04/21 04:56:50;;;;;;;30.63;9.35;;;6.80;99.90;;;;;;5014204;28;20042;-80
2023/04/21 04:59:16;;;;;;;29.33;9.98;;;6.80;99.90;;;;;;5013960;28;20380;-80
2023/04/21 05:01:43;;;;;;;23.42;10.02;;;6.80;99.90;;;;;;5012965;28;20927;-79
2023/04/21 05:04:10;;;;;;;26.92;9.93;;;6.70;99.90;;;;;;5014899;28;20068;-80
2023/04/21 05:06:37;;;;;;;29.85;10.25;;;6.80;99.90;;;;;;5013896;28;20038;-80
2023/04/21 05:09:03;;;;;;;37.00;10.90;;;6.80;99.90;;;;;;5014648;28;20042;-80
2023/04/21 05:11:30;;;;;;;33.30;9.77;;;6.80;99.90;;;;;;5014071;28;20041;-80
2023/04/21 05:13:57;;;;;;;25.10;9.90;;;6.90;99.90;;;;;;5012833;28;20049;-80
2023/04/21 05:16:23;;;;;;;24.42;10.13;;;7.00;99.90;;;;;;5014161;28;20140;-79
2023/04/21 05:18:52;;;;;;;40.17;9.75;;;7.00;99.90;;;;;;5014838;28;20038;-79
2023/04/21 05:21:19;;;;;;;27.92;10.98;;;7.00;99.90;;;;;;5013908;28;20460;-79
2023/04/21 05:23:46;;;;;;;25.42;9.55;;;7.10;99.90;;;;;;5013917;28;20038;-80
2023/04/21 05:26:12;;;;;;;31.75;10.50;;;7.20;99.90;;;;;;5014885;28;20046;-81
2023/04/21 05:28:41;;;;;;;29.40;10.32;;;7.20;99.90;;;;;;5013936;28;20124;-79
2023/04/21 05:31:08;;;;;;;28.25;10.02;;;7.20;99.90;;;;;;4997993;28;20427;-81
2023/04/21 05:33:34;;;;;;;25.08;8.95;;;7.30;99.90;;;;;;5012717;28;20042;-79
2023/04/21 05:36:01;;;;;;;38.30;10.52;;;7.30;99.90;;;;;;5013525;28;20461;-81
2023/04/21 05:38:29;;;;;;;27.15;9.05;;;7.40;99.90;;;;;;5014509;28;20053;-79
2023/04/21 05:40:56;;;;;;;26.38;10.05;;;7.40;99.90;;;;;;5012358;28;20145;-81
2023/04/21 05:43:22;;;;;;;28.40;10.65;;;7.40;99.90;;;;;;5014567;28;20121;-79
2023/04/21 05:45:49;;;;;;;30.00;9.07;;;7.40;99.90;;;;;;5013510;28;20038;-80
2023/04/21 05:51:02;;;;;;;32.55;9.25;;;7.40;99.90;;;;;;5013495;28;20049;-79
2023/04/21 05:53:29;;;;;;;29.27;9.75;;;7.50;99.90;;;;;;5012684;28;20060;-81
2023/04/21 05:55:55;;;;;;;23.95;9.23;;;7.50;99.90;;;;;;5014402;28;20073;-79
2023/04/21 05:58:23;;;;;;;37.28;10.05;;;7.40;99.90;;;;;;5013650;28;20046;-79
2023/04/21 06:00:50;;;;;;;25.85;9.38;;;7.40;99.90;;;;;;5013948;28;20046;-79
2023/04/21 06:03:16;;;;;;;27.33;9.35;;;7.40;99.90;;;;;;5017127;28;20049;-79
2023/04/21 06:05:43;;;;;;;25.55;9.55;;;7.50;99.90;;;;;;5017855;28;20066;-80
2023/04/21 06:08:11;;;;;;;26.77;9.40;;;7.40;99.90;;;;;;5015991;28;20053;-78
2023/04/21 06:10:38;;;;;;;21.15;7.93;;;7.40;99.90;;;;;;5017030;28;20034;-78
2023/04/21 06:13:04;;;;;;;21.55;9.80;;;7.40;99.90;;;;;;5017108;28;20375;-78
2023/04/21 06:15:31;;;;;;;19.20;8.40;;;7.40;99.90;;;;;;5016739;28;20052;-79
2023/04/21 06:17:59;;;;;;;21.70;7.88;;;7.50;99.90;;;;;;5016778;28;20045;-81
2023/04/21 06:20:27;;;;;;;28.45;9.32;;;7.50;99.90;;;;;;5017112;28;20100;-80
2023/04/21 06:22:54;;;;;;;22.42;8.63;;;7.60;99.90;;;;;;5016516;28;20037;-80
2023/04/21 06:25:24;;;;;;;30.35;10.13;;;7.60;99.90;;;;;;5016626;28;20057;-79
2023/04/21 06:27:51;;;;;;;31.60;9.10;;;7.60;99.90;;;;;;5016459;28;20045;-81
2023/04/21 06:30:18;;;;;;;25.05;10.30;;;7.70;99.90;;;;;;5016607;28;20049;-80
2023/04/21 06:32:47;;;;;;;28.58;10.82;;;7.70;99.90;;;;;;5017345;28;20049;-81
2023/04/21 06:35:14;;;;;;;24.63;10.30;;;7.80;99.90;;;;;;5015769;28;20061;-80
2023/04/21 06:37:41;;;;;;;24.83;9.82;;;7.80;99.90;;;;;;5016324;28;20050;-78
2023/04/21 06:40:08;;;;;;;29.33;9.02;;;7.80;99.90;;;;;;5016438;28;20048;-82
2023/04/21 06:42:35;;;;;;;25.33;9.43;;;8.00;99.90;;;;;;5018250;28;20500;-80
2023/04/21 06:45:01;;;;;;;28.17;9.80;;;8.10;99.90;;;;;;5017264;28;20041;-79
2023/04/21 06:47:28;;;;;;;24.83;9.00;;;8.10;99.90;;;;;;5015406;28;20045;-80
2023/04/21 06:49:55;;;;;;;27.05;9.18;;;8.20;99.90;;;;;;5017613;28;20045;-81
2023/04/21 06:52:22;;;;;;;22.27;8.35;;;8.20;99.90;;;;;;5019136;28;20038;-80
2023/04/21 06:54:51;;;;;;;22.00;8.75;;;8.20;99.90;;;;;;5035055;28;20045;-81
2023/04/21 06:57:18;;;;;;;18.63;6.15;;;8.20;99.90;;;;;;5035862;28;20046;-81
2023/04/21 06:59:45;;;;;;;26.20;9.13;;;8.10;99.90;;;;;;5036059;28;20041;-81
2023/04/21 07:02:14;;;;;;;22.13;7.93;;;8.10;99.90;;;;;;5036226;28;20115;-80
2023/04/21 07:04:41;;;;;;;25.58;8.95;;;8.20;99.90;;;;;;5035525;28;20041;-80
2023/04/21 07:07:09;;;;;;;22.13;9.00;;;8.20;99.90;;;;;;5035752;28;20065;-80
2023/04/21 07:09:36;;;;;;;22.95;8.23;;;8.20;99.90;;;;;;5035878;28;20042;-82
2023/04/21 07:12:02;;;;;;;19.58;7.85;;;8.20;99.90;;;;;;5035041;28;20049;-82
2023/04/21 07:14:29;;;;;;;22.88;8.55;;;8.20;99.90;;;;;;5034765;28;20054;-81
2023/04/21 07:16:56;;;;;;;17.00;7.63;;;8.20;99.90;;;;;;5035401;28;20060;-82
2023/04/21 07:19:23;;;;;;;19.05;8.32;;;8.30;99.90;;;;;;5035432;28;20069;-82
2023/04/21 07:21:49;;;;;;;21.20;7.72;;;8.30;99.90;;;;;;5034666;28;20059;-81
2023/04/21 07:24:16;;;;;;;17.13;7.32;;;8.30;99.90;;;;;;5035395;28;20229;-80
2023/04/21 07:26:43;;;;;;;21.58;7.85;;;8.30;99.90;;;;;;5034529;28;20400;-81
2023/04/21 07:29:10;;;;;;;16.98;6.85;;;8.30;99.90;;;;;;5035036;28;20137;-80
2023/04/21 07:31:37;;;;;;;15.32;6.78;;;8.20;99.90;;;;;;5035135;28;20065;-82
2023/04/21 07:34:04;;;;;;;20.00;6.95;;;8.10;99.90;;;;;;5035279;28;20033;-80
2023/04/21 07:36:31;;;;;;;17.40;7.88;;;8.10;99.90;;;;;;5018668;28;20065;-80
2023/04/21 07:38:58;;;;;;;16.48;7.22;;;8.00;99.90;;;;;;5036129;28;20088;-81
2023/04/21 07:41:25;;;;;;;20.83;7.55;;;7.90;99.90;;;;;;5035169;28;20057;-81
2023/04/21 07:43:52;;;;;;;19.20;7.38;;;7.90;99.90;;;;;;5035938;28;20107;-81
2023/04/21 07:46:20;;;;;;;19.27;7.25;;;8.00;99.90;;;;;;5034723;28;20053;-81
2023/04/21 07:48:48;;;;;;;19.30;7.07;;;8.00;99.90;;;;;;5034984;28;20072;-84
2023/04/21 07:51:16;;;;;;;18.30;5.90;;;8.00;99.90;;;;;;5019899;28;20066;-82
2023/04/21 07:53:43;;;;;;;18.35;6.35;;;8.00;99.90;;;;;;5037654;28;20043;-81
2023/04/21 07:56:11;;;;;;;19.77;7.47;;;7.90;99.90;;;;;;5038115;28;20045;-85
2023/04/21 07:58:39;;;;;;;17.45;6.95;;;7.90;99.90;;;;;;5055300;28;20363;-84
2023/04/21 08:01:06;;;;;;;15.80;6.93;;;7.90;99.90;;;;;;5053894;28;20116;-83
2023/04/21 08:03:33;;;;;;;17.35;7.03;;;8.00;99.90;;;;;;5054260;28;20079;-82
2023/04/21 08:05:59;;;;;;;18.13;7.25;;;8.00;99.90;;;;;;5055116;28;20045;-80
2023/04/21 08:08:27;;;;;;;21.13;7.70;;;8.00;99.90;;;;;;5054582;28;20041;-79
2023/04/21 08:10:57;;;;;;;20.10;6.75;;;8.00;99.90;;;;;;5022610;28;20033;-80
2023/04/21 08:13:24;;;;;;;20.00;7.25;;;8.10;99.90;;;;;;5016206;28;20041;-84
2023/04/21 08:15:50;;;;;;;15.45;6.60;;;8.10;99.90;;;;;;5035382;28;20045;-81
2023/04/21 08:18:17;;;;;;;19.98;7.43;;;8.20;99.90;;;;;;5034954;28;20037;-81
2023/04/21 08:20:48;;;;;;;17.60;6.88;;;8.10;99.90;;;;;;5017020;28;20056;-82
2023/04/21 08:23:14;;;;;;;16.95;6.97;;;8.10;99.90;;;;;;5034064;28;20448;-82
2023/04/21 08:25:41;;;;;;;18.92;6.68;;;8.00;99.90;;;;;;5034652;28;20037;-83
2023/04/21 08:28:09;;;;;;;17.52;6.80;;;8.00;99.90;;;;;;5033353;28;20045;-82
2023/04/21 08:30:36;;;;;;;21.08;8.25;;;8.00;99.90;;;;;;5017532;28;20463;-82
2023/04/21 08:33:02;;;;;;;25.70;7.22;;;8.00;99.90;;;;;;5034871;28;20056;-81
2023/04/21 08:35:29;;;;;;;20.75;7.65;;;8.10;99.90;;;;;;5016751;28;20152;-80
2023/04/21 08:37:56;;;;;;;15.20;6.25;;;8.00;99.90;;;;;;5022369;28;20046;-82
2023/04/21 08:40:23;;;;;;;19.02;7.18;;;8.00;99.90;;;;;;5013978;28;20543;-83
2023/04/21 08:42:58;;;;;;;19.65;7.03;;;8.00;99.90;;;;;;5026239;28;20060;-82
2023/04/21 08:45:53;;;;;;;17.70;6.65;;;8.00;99.90;;;;;;5013796;28;20057;-81
2023/04/21 08:48:20;;;;;;;18.25;7.18;;;8.00;99.90;;;;;;5028876;28;20045;-81
2023/04/21 08:50:47;;;;;;;14.73;6.05;;;8.00;99.90;;;;;;5012843;28;20452;-82
2023/04/21 08:53:14;;;;;;;17.73;6.53;;;7.90;99.90;;;;;;5026129;28;20041;-86
2023/04/21 08:55:40;;;;;;;17.67;6.93;;;7.90;99.90;;;;;;5033804;28;20049;-82
2023/04/21 09:01:11;;;;;;;17.73;6.68;;;7.80;99.90;;;;;;5012284;28;20048;-81
2023/04/21 09:03:38;;;;;;;15.07;5.55;;;7.80;99.90;;;;;;5027035;28;20459;-80
2023/04/21 09:06:05;;;;;;;21.40;7.30;;;7.70;99.90;;;;;;5016835;28;20041;-82
2023/04/21 09:08:32;;;;;;;16.30;7.00;;;7.70;99.90;;;;;;5032161;28;20104;-81
2023/04/21 09:11:00;;;;;;;17.75;6.70;;;7.70;99.90;;;;;;5027139;28;20037;-81
2023/04/21 09:13:26;;;;;;;17.15;6.22;;;7.80;99.90;;;;;;5052043;28;20056;-81
2023/04/21 09:15:53;;;;;;;16.48;6.00;;;7.80;99.90;;;;;;5054135;28;20049;-80
2023/04/21 09:18:21;;;;;;;15.15;5.72;;;7.80;99.90;;;;;;5029486;28;20056;-82
2023/04/21 09:20:48;;;;;;;17.67;5.72;;;7.80;99.90;;;;;;5013617;28;20041;-80
2023/04/21 09:23:15;;;;;;;15.98;5.70;;;7.80;99.90;;;;;;5014327;28;20354;-80
2023/04/21 09:26:10;;;;;;;16.85;6.40;;;7.80;99.90;;;;;;5017211;28;20515;-80
2023/04/21 09:28:53;;;;;;;14.60;5.45;;;7.80;99.90;;;;;;5023088;28;20452;-78
2023/04/21 09:31:20;;;;;;;13.65;5.60;;;7.70;99.90;;;;;;5033704;28;20037;-82
2023/04/21 09:33:50;;;;;;;12.73;5.82;;;7.70;99.90;;;;;;5016462;28;20049;-82
2023/04/21 09:36:20;;;;;;;17.60;5.72;;;7.60;99.90;;;;;;5037635;28;20478;-82
2023/04/21 09:41:35;;;;;;;11.85;5.32;;;7.70;99.90;;;;;;5036726;28;20092;-80
2023/04/21 09:44:03;;;;;;;11.60;4.68;;;7.70;99.90;;;;;;5037841;28;20052;-79
2023/04/21 09:46:30;;;;;;;12.95;5.10;;;7.60;99.90;;;;;;5036605;28;20049;-79
2023/04/21 09:48:58;;;;;;;14.38;5.50;;;7.70;99.90;;;;;;5023694;28;20045;-82
2023/04/21 09:51:25;;;;;;;11.95;5.07;;;7.70;99.90;;;;;;5018052;28;20052;-81
2023/04/21 09:54:11;;;;;;;12.25;5.50;;;7.60;99.90;;;;;;5002987;28;20126;-83
2023/04/21 09:56:54;;;;;;;13.40;5.55;;;7.70;99.90;;;;;;5023962;28;20069;-80
2023/04/21 09:59:21;;;;;;;11.10;4.88;;;7.70;99.90;;;;;;5026755;28;20054;-79
2023/04/21 10:01:49;;;;;;;11.65;4.47;;;7.70;99.90;;;;;;5016253;28;20054;-79
2023/04/21 10:04:16;;;;;;;11.93;4.03;;;7.70;99.90;;;;;;5027847;28;20486;-80
2023/04/21 10:06:43;;;;;;;11.32;4.90;;;7.80;99.90;;;;;;5035300;28;20055;-81
2023/04/21 10:11:56;;;;;;;11.30;4.43;;;7.90;99.90;;;;;;5030503;28;20065;-80
2023/04/21 10:14:23;;;;;;;10.55;4.68;;;8.00;99.90;;;;;;5032018;28;20076;-80
2023/04/21 10:16:49;;;;;;;9.98;4.28;;;8.20;99.90;;;;;;5037093;28;20475;-80
2023/04/21 10:19:18;;;;;;;9.52;4.47;;;8.40;99.90;;;;;;5037071;28;20037;-79
2023/04/21 10:21:50;;;;;;;10.70;4.30;;;8.60;99.90;;;;;;5035110;28;20216;-78
2023/04/21 10:24:17;;;;;;;12.25;3.97;;;8.70;99.90;;;;;;5036000;28;20044;-79
2023/04/21 10:26:44;;;;;;;11.48;4.10;;;8.70;99.90;;;;;;5035590;28;20045;-79
2023/04/21 10:29:11;;;;;;;11.05;4.47;;;8.60;99.90;;;;;;5036916;28;20046;-81
2023/04/21 10:31:38;;;;;;;13.27;5.15;;;8.60;99.90;;;;;;5019455;28;20089;-80
2023/04/21 10:34:05;;;;;;;8.50;3.60;;;8.60;99.90;;;;;;5035856;28;20060;-79
2023/04/21 10:36:33;;;;;;;12.23;5.18;;;8.60;99.90;;;;;;5019643;28;20357;-79
2023/04/21 10:39:04;;;;;;;12.68;4.82;;;8.50;99.90;;;;;;5022411;28;20085;-82
2023/04/21 10:41:31;;;;;;;11.90;5.05;;;8.50;99.90;;;;;;5024986;28;20458;-82
2023/04/21 10:43:58;;;;;;;11.98;4.95;;;8.50;99.90;;;;;;5016163;28;20037;-81
2023/04/21 10:46:25;;;;;;;10.68;4.45;;;8.60;99.90;;;;;;5018463;28;20041;-82
2023/04/21 10:48:53;;;;;;;9.38;4.57;;;8.70;99.90;;;;;;5018904;28;20042;-80
2023/04/21 10:51:20;;;;;;;11.30;4.20;;;8.90;99.90;;;;;;5035560;28;20489;-80
2023/04/21 10:53:46;;;;;;;10.68;4.20;;;8.90;99.90;;;;;;5017790;28;20144;-81
2023/04/21 10:56:13;;;;;;;12.30;5.43;;;9.00;99.90;;;;;;5035312;28;20037;-80
2023/04/21 10:58:41;;;;;;;11.38;4.32;;;9.00;99.90;;;;;;5036272;28;20068;-82
2023/04/21 11:01:08;;;;;;;8.20;3.83;;;8.90;99.90;;;;;;5035534;28;20049;-82
2023/04/21 11:03:35;;;;;;;7.82;3.15;;;8.90;99.90;;;;;;5036009;28;20136;-80
2023/04/21 11:06:04;;;;;;;9.30;3.63;;;9.00;99.90;;;;;;5015471;28;20074;-82
2023/04/21 11:08:31;;;;;;;9.43;4.28;;;9.10;99.90;;;;;;5014935;28;20376;-81
2023/04/21 11:10:58;;;;;;;9.65;3.80;;;9.20;99.90;;;;;;5015319;28;21085;-81
2023/04/21 11:13:25;;;;;;;9.55;4.07;;;9.70;99.90;;;;;;5014740;28;20383;-81
2023/04/21 11:15:51;;;;;;;10.70;4.72;;;10.00;99.90;;;;;;5015405;28;20152;-81
2023/04/21 11:18:18;;;;;;;10.85;4.68;;;9.90;99.90;;;;;;5017303;28;20056;-82
2023/04/21 11:20:45;;;;;;;11.20;4.53;;;9.80;99.90;;;;;;5014601;28;20121;-83
2023/04/21 11:23:12;;;;;;;12.60;4.45;;;9.70;99.90;;;;;;5016067;28;20357;-81
2023/04/21 11:25:39;;;;;;;10.57;4.55;;;9.70;99.90;;;;;;4997987;28;20046;-80
2023/04/21 11:28:05;;;;;;;11.70;5.15;;;9.60;99.90;;;;;;5033446;28;20042;-81
2023/04/21 11:30:32;;;;;;;13.65;5.57;;;9.40;99.90;;;;;;5034720;28;20029;-82
2023/04/21 11:32:59;;;;;;;12.93;5.60;;;9.30;99.90;;;;;;5028672;28;20362;-81
2023/04/21 11:35:26;;;;;;;14.05;6.60;;;9.20;99.90;;;;;;5023406;28;20446;-80
2023/04/21 11:37:53;;;;;;;20.13;8.02;;;9.10;99.90;;;;;;5025738;28;20034;-81
2023/04/21 11:40:20;;;;;;;17.52;6.75;;;9.00;99.90;;;;;;5016299;28;20045;-80
2023/04/21 11:42:46;;;;;;;17.77;7.38;;;9.10;99.90;;;;;;5032455;28;20038;-81
2023/04/21 11:45:13;;;;;;;17.85;8.63;;;9.10;99.90;;;;;;5024368;28;20102;-83
2023/04/21 11:47:40;;;;;;;17.98;7.93;;;9.10;99.90;;;;;;5023490;28;20034;-82
2023/04/21 11:50:08;;;;;;;17.30;7.80;;;9.10;99.90;;;;;;5023717;28;20472;-81
2023/04/21 11:52:36;;;;;;;15.15;6.40;;;9.20;99.90;;;;;;5034391;28;20037;-83
2023/04/21 11:55:03;;;;;;;16.90;6.75;;;9.20;99.90;;;;;;5032976;28;20055;-80
2023/04/21 11:57:30;;;;;;;17.77;7.00;;;9.30;99.90;;;;;;5015862;28;20057;-81
2023/04/21 11:59:56;;;;;;;15.18;6.60;;;9.70;99.90;;;;;;5031873;28;20140;-81
2023/04/21 12:02:23;;;;;;;14.57;7.18;;;10.00;99.90;;;;;;5020734;28;20037;-81
2023/04/21 12:04:50;;;;;;;13.38;6.68;;;10.30;99.90;;;;;;5013018;28;20388;-83
2023/04/21 12:07:17;;;;;;;14.30;6.32;;;10.40;99.90;;;;;;5013309;28;20045;-81
2023/04/21 12:09:44;;;;;;;11.80;5.38;;;10.30;99.90;;;;;;4997323;28;20077;-81
2023/04/21 12:12:10;;;;;;;12.18;5.13;;;10.40;99.90;;;;;;4997955;28;20049;-81
2023/04/21 12:14:37;;;;;;;13.73;5.68;;;10.40;99.90;;;;;;5013925;28;20050;-81
2023/04/21 12:17:04;;;;;;;13.90;6.75;;;10.30;99.90;;;;;;5005539;28;20042;-82
2023/04/21 12:19:31;;;;;;;14.30;6.70;;;10.30;99.90;;;;;;5017282;28;20143;-82
2023/04/21 12:21:58;;;;;;;14.25;7.13;;;10.20;99.90;;;;;;5016140;28;20033;-81
2023/04/21 12:24:25;;;;;;;15.15;7.22;;;10.40;99.90;;;;;;5033217;28;20037;-82
2023/04/21 12:26:51;;;;;;;15.18;7.13;;;10.60;99.90;;;;;;5025830;28;20038;-81
2023/04/21 12:29:18;;;;;;;16.08;7.65;;;10.80;99.90;;;;;;5013518;28;20056;-80
2023/04/21 12:31:45;;;;;;;18.10;7.95;;;10.90;99.90;;;;;;5013213;28;20046;-82
2023/04/21 12:34:11;;;;;;;16.90;8.50;;;11.30;99.90;;;;;;4997149;28;20081;-81
2023/04/21 12:36:38;;;;;;;17.30;8.52;;;11.60;99.90;;;;;;5013920;28;20053;-82
2023/04/21 12:39:06;;;;;;;16.40;8.05;;;11.70;99.90;;;;;;5013672;28;20542;-82
2023/04/21 12:41:33;;;;;;;16.73;8.70;;;12.00;99.90;;;;;;5013056;28;20050;-80
2023/04/21 12:44:00;;;;;;;16.95;8.93;;;12.70;99.90;;;;;;5013957;28;20050;-83
2023/04/21 12:46:27;;;;;;;17.63;7.85;;;13.50;99.90;;;;;;5013763;28;20527;-80
2023/04/21 12:51:40;;;;;;;14.75;7.70;;;13.40;99.90;;;;;;5014634;28;20056;-83
2023/04/21 12:54:06;;;;;;;14.88;7.38;;;13.60;99.90;;;;;;5013043;28;20041;-83
2023/04/21 12:56:33;;;;;;;15.13;6.78;;;13.50;99.90;;;;;;5015636;28;20073;-81
2023/04/21 12:59:00;;;;;;;15.85;7.57;;;13.20;99.90;;;;;;5034224;28;20128;-82
2023/04/21 13:01:27;;;;;;;13.32;6.72;;;13.10;99.90;;;;;;5033196;28;20079;-83
2023/04/21 13:03:53;;;;;;;12.32;6.43;;;13.10;99.90;;;;;;5016895;28;20077;-83
2023/04/21 13:06:20;;;;;;;11.70;6.85;;;13.00;99.90;;;;;;5033216;28;20049;-82
2023/04/21 13:08:47;;;;;;;12.02;6.50;;;13.00;99.90;;;;;;5033262;28;20055;-81
2023/04/21 13:11:14;;;;;;;10.55;5.60;;;13.70;99.90;;;;;;5037343;28;20054;-81
2023/04/21 13:13:41;;;;;;;11.73;5.78;;;13.80;99.90;;;;;;5036772;28;20041;-83
2023/04/21 13:16:07;;;;;;;12.88;6.95;;;13.70;99.90;;;;;;5034856;28;20384;-87
2023/04/21 13:18:36;;;;;;;13.52;6.78;;;14.00;99.90;;;;;;5027276;28;20042;-88
2023/04/21 13:21:03;;;;;;;12.68;6.38;;;14.60;99.90;;;;;;5026302;28;20156;-86
2023/04/21 13:23:30;;;;;;;11.05;6.18;;;15.60;99.90;;;;;;5034436;28;20041;-87
2023/04/21 13:25:57;;;;;;;11.02;6.40;;;16.10;99.90;;;;;;5034473;28;20056;-86
2023/04/21 13:31:09;;;;;;;10.90;6.35;;;16.30;99.90;;;;;;5017830;28;20058;-88